This is the latest recevied weather packets stored in our database for station/object OK2ILA-6. If no packets are shown the sender has not sent any weather packets the latest 10 day(s).
| Time | Temp. | Humidity | Pressure | Rain* | Wind** | Luminosity | Snow |
|---|---|---|---|---|---|---|---|
| 1777589403 | 5.56° C | 72% | 1027.5 hPa | - | - | - | - |
| 1777588803 | 5.56° C | 72% | 1027.6 hPa | - | - | - | - |
| 1777588203 | 5.56° C | 72% | 1027.6 hPa | - | - | - | - |
| 1777587603 | 5.56° C | 73% | 1027.5 hPa | - | - | - | - |
| 1777587002 | 5.56° C | 72% | 1027.7 hPa | - | - | - | - |
| 1777586403 | 5° C | 73% | 1027.6 hPa | - | - | - | - |
| 1777585803 | 5.56° C | 72% | 1027.7 hPa | - | - | - | - |
| 1777585203 | 5.56° C | 72% | 1027.7 hPa | - | - | - | - |
| 1777584603 | 5.56° C | 72% | 1027.8 hPa | - | - | - | - |
| 1777584002 | 5.56° C | 70% | 1027.8 hPa | - | - | - | - |
| 1777583403 | 5.56° C | 71% | 1027.6 hPa | - | - | - | - |
| 1777582803 | 5.56° C | 72% | 1027.6 hPa | - | - | - | - |
| 1777582203 | 6.11° C | 70% | 1027.4 hPa | - | - | - | - |
| 1777581603 | 6.67° C | 70% | 1027.4 hPa | - | - | - | - |
| 1777581002 | 6.67° C | 70% | 1027.4 hPa | - | - | - | - |
| 1777580403 | 6.67° C | 72% | 1027.4 hPa | - | - | - | - |
| 1777579803 | 6.67° C | 70% | 1027.5 hPa | - | - | - | - |
| 1777579203 | 7.22° C | 68% | 1027.4 hPa | - | - | - | - |
| 1777578603 | 7.78° C | 67% | 1027.5 hPa | - | - | - | - |
| 1777578003 | 8.33° C | 60% | 1027.4 hPa | - | - | - | - |
| 1777577403 | 8.89° C | 60% | 1027.3 hPa | - | - | - | - |
| 1777576803 | 8.89° C | 60% | 1027.2 hPa | - | - | - | - |
| 1777576203 | 10° C | 56% | 1027.1 hPa | - | - | - | - |
| 1777575603 | 11.11° C | 49% | 1027.2 hPa | - | - | - | - |
| 1777575003 | 11.11° C | 49% | 1027 hPa | - | - | - | - |
* Rain since midnight (hover to see other rain measurements)
** Current wind speed in m/s (hover to see current wind gust speed)